sensor_id;sensor_type;location;lat;lon;timestamp;temperature;humidity
674;DHT22;319;48.764;9.174;2023-03-01T00:03:03;2.10;97.10
674;DHT22;319;48.764;9.174;2023-03-01T00:05:30;2.00;97.60
674;DHT22;319;48.764;9.174;2023-03-01T00:07:58;2.10;99.90
674;DHT22;319;48.764;9.174;2023-03-01T00:10:25;1.80;99.90
674;DHT22;319;48.764;9.174;2023-03-01T00:12:52;2.10;99.90
674;DHT22;319;48.764;9.174;2023-03-01T00:15:20;1.90;99.90
674;DHT22;319;48.764;9.174;2023-03-01T00:17:47;1.90;99.90
674;DHT22;319;48.764;9.174;2023-03-01T00:20:14;2.10;99.90
674;DHT22;319;48.764;9.174;2023-03-01T00:22:41;2.60;99.90
674;DHT22;319;48.764;9.174;2023-03-01T00:25:09;2.20;99.90
674;DHT22;319;48.764;9.174;2023-03-01T00:27:36;2.40;99.90
674;DHT22;319;48.764;9.174;2023-03-01T00:30:03;2.00;99.90
674;DHT22;319;48.764;9.174;2023-03-01T00:32:30;2.00;99.90
674;DHT22;319;48.764;9.174;2023-03-01T00:34:57;1.70;99.90
674;DHT22;319;48.764;9.174;2023-03-01T00:37:24;1.80;99.90
674;DHT22;319;48.764;9.174;2023-03-01T00:39:51;2.20;99.90
674;DHT22;319;48.764;9.174;2023-03-01T00:42:19;2.20;99.90
674;DHT22;319;48.764;9.174;2023-03-01T00:44:47;1.80;99.90
674;DHT22;319;48.764;9.174;2023-03-01T00:47:14;1.50;99.90
674;DHT22;319;48.764;9.174;2023-03-01T00:49:41;1.70;99.90
674;DHT22;319;48.764;9.174;2023-03-01T00:52:08;2.10;99.90
674;DHT22;319;48.764;9.174;2023-03-01T00:54:35;1.90;99.90
674;DHT22;319;48.764;9.174;2023-03-01T00:57:02;1.60;99.90
674;DHT22;319;48.764;9.174;2023-03-01T00:59:30;1.80;99.90
674;DHT22;319;48.764;9.174;2023-03-01T01:01:57;1.70;99.90
674;DHT22;319;48.764;9.174;2023-03-01T01:04:24;1.50;99.90
674;DHT22;319;48.764;9.174;2023-03-01T01:06:51;1.70;99.90
674;DHT22;319;48.764;9.174;2023-03-01T01:09:18;1.60;99.90
674;DHT22;319;48.764;9.174;2023-03-01T01:11:45;1.70;99.90
674;DHT22;319;48.764;9.174;2023-03-01T01:14:13;2.00;99.90
674;DHT22;319;48.764;9.174;2023-03-01T01:16:41;1.50;99.90
674;DHT22;319;48.764;9.174;2023-03-01T01:19:09;2.30;99.90
674;DHT22;319;48.764;9.174;2023-03-01T01:21:36;1.10;99.90
674;DHT22;319;48.764;9.174;2023-03-01T01:24:04;1.50;99.90
674;DHT22;319;48.764;9.174;2023-03-01T01:26:33;1.90;99.90
674;DHT22;319;48.764;9.174;2023-03-01T01:29:02;1.30;99.90
674;DHT22;319;48.764;9.174;2023-03-01T01:31:29;1.50;99.90
674;DHT22;319;48.764;9.174;2023-03-01T01:33:59;1.30;99.90
674;DHT22;319;48.764;9.174;2023-03-01T01:36:26;1.10;99.90
674;DHT22;319;48.764;9.174;2023-03-01T01:38:53;1.30;99.90
674;DHT22;319;48.764;9.174;2023-03-01T01:41:21;1.70;99.90
674;DHT22;319;48.764;9.174;2023-03-01T01:43:49;1.70;99.90
674;DHT22;319;48.764;9.174;2023-03-01T01:46:23;1.80;99.90
674;DHT22;319;48.764;9.174;2023-03-01T01:48:55;1.40;99.90
674;DHT22;319;48.764;9.174;2023-03-01T01:51:25;1.80;99.90
674;DHT22;319;48.764;9.174;2023-03-01T01:53:58;1.60;99.90
674;DHT22;319;48.764;9.174;2023-03-01T01:56:28;1.60;99.90
674;DHT22;319;48.764;9.174;2023-03-01T01:58:55;1.50;99.90
674;DHT22;319;48.764;9.174;2023-03-01T02:01:23;1.70;99.90
674;DHT22;319;48.764;9.174;2023-03-01T02:03:50;1.80;99.90
674;DHT22;319;48.764;9.174;2023-03-01T02:06:23;1.90;99.90
674;DHT22;319;48.764;9.174;2023-03-01T02:08:57;1.90;99.90
674;DHT22;319;48.764;9.174;2023-03-01T02:11:26;1.80;99.90
674;DHT22;319;48.764;9.174;2023-03-01T02:13:54;1.80;99.90
674;DHT22;319;48.764;9.174;2023-03-01T02:16:21;2.40;99.90
674;DHT22;319;48.764;9.174;2023-03-01T02:18:50;2.20;99.90
674;DHT22;319;48.764;9.174;2023-03-01T02:21:30;2.70;99.90
674;DHT22;319;48.764;9.174;2023-03-01T02:24:08;2.20;99.90
674;DHT22;319;48.764;9.174;2023-03-01T02:26:41;2.20;99.90
674;DHT22;319;48.764;9.174;2023-03-01T02:29:10;2.20;99.90
674;DHT22;319;48.764;9.174;2023-03-01T02:31:37;2.30;99.90
674;DHT22;319;48.764;9.174;2023-03-01T02:34:12;2.30;97.90
674;DHT22;319;48.764;9.174;2023-03-01T02:36:42;2.30;99.10
674;DHT22;319;48.764;9.174;2023-03-01T02:39:13;2.50;98.80
674;DHT22;319;48.764;9.174;2023-03-01T02:41:47;2.40;98.70
674;DHT22;319;48.764;9.174;2023-03-01T02:44:16;2.50;98.80
674;DHT22;319;48.764;9.174;2023-03-01T02:46:44;2.50;99.00
674;DHT22;319;48.764;9.174;2023-03-01T02:49:21;2.50;98.40
674;DHT22;319;48.764;9.174;2023-03-01T02:51:56;3.20;99.50
674;DHT22;319;48.764;9.174;2023-03-01T02:54:29;2.40;99.20
674;DHT22;319;48.764;9.174;2023-03-01T02:56:59;2.40;99.10
674;DHT22;319;48.764;9.174;2023-03-01T02:59:30;2.10;99.90
674;DHT22;319;48.764;9.174;2023-03-01T03:01:57;2.80;99.10
674;DHT22;319;48.764;9.174;2023-03-01T03:04:24;2.40;98.70
674;DHT22;319;48.764;9.174;2023-03-01T03:06:51;3.00;99.00
674;DHT22;319;48.764;9.174;2023-03-01T03:09:18;2.40;99.00
674;DHT22;319;48.764;9.174;2023-03-01T03:11:46;2.60;98.80
674;DHT22;319;48.764;9.174;2023-03-01T03:14:14;2.80;98.90
674;DHT22;319;48.764;9.174;2023-03-01T03:16:45;2.50;98.70
674;DHT22;319;48.764;9.174;2023-03-01T03:19:12;2.50;99.00
674;DHT22;319;48.764;9.174;2023-03-01T03:21:39;2.50;98.70
674;DHT22;319;48.764;9.174;2023-03-01T03:24:06;2.40;98.80
674;DHT22;319;48.764;9.174;2023-03-01T03:26:33;2.50;98.80
674;DHT22;319;48.764;9.174;2023-03-01T03:28:59;2.50;98.80
674;DHT22;319;48.764;9.174;2023-03-01T03:31:27;1.80;98.50
674;DHT22;319;48.764;9.174;2023-03-01T03:33:55;3.00;99.10
674;DHT22;319;48.764;9.174;2023-03-01T03:36:23;3.00;99.90
674;DHT22;319;48.764;9.174;2023-03-01T03:38:50;2.60;98.50
674;DHT22;319;48.764;9.174;2023-03-01T03:41:17;2.70;99.20
674;DHT22;319;48.764;9.174;2023-03-01T03:43:44;2.70;99.10
674;DHT22;319;48.764;9.174;2023-03-01T03:46:12;2.70;98.40
674;DHT22;319;48.764;9.174;2023-03-01T03:48:41;2.80;99.00
674;DHT22;319;48.764;9.174;2023-03-01T03:51:12;2.70;99.10
674;DHT22;319;48.764;9.174;2023-03-01T03:53:39;2.80;99.00
674;DHT22;319;48.764;9.174;2023-03-01T03:56:06;2.50;99.90
674;DHT22;319;48.764;9.174;2023-03-01T03:58:33;3.00;98.80
674;DHT22;319;48.764;9.174;2023-03-01T04:01:00;2.90;98.60
674;DHT22;319;48.764;9.174;2023-03-01T04:03:28;2.80;98.10
674;DHT22;319;48.764;9.174;2023-03-01T04:05:57;2.80;98.70
674;DHT22;319;48.764;9.174;2023-03-01T04:08:26;2.70;98.80
674;DHT22;319;48.764;9.174;2023-03-01T04:10:57;2.70;98.70
674;DHT22;319;48.764;9.174;2023-03-01T04:13:25;3.30;99.20
674;DHT22;319;48.764;9.174;2023-03-01T04:15:53;2.80;98.90
674;DHT22;319;48.764;9.174;2023-03-01T04:18:22;2.90;98.80
674;DHT22;319;48.764;9.174;2023-03-01T04:20:50;2.90;98.70
674;DHT22;319;48.764;9.174;2023-03-01T04:23:21;3.00;98.40
674;DHT22;319;48.764;9.174;2023-03-01T04:25:50;2.70;98.50
674;DHT22;319;48.764;9.174;2023-03-01T04:28:21;3.00;98.70
674;DHT22;319;48.764;9.174;2023-03-01T04:30:50;3.10;98.60
674;DHT22;319;48.764;9.174;2023-03-01T04:33:17;2.90;98.30
674;DHT22;319;48.764;9.174;2023-03-01T04:35:44;2.90;98.70
674;DHT22;319;48.764;9.174;2023-03-01T04:38:11;2.90;98.70
674;DHT22;319;48.764;9.174;2023-03-01T04:40:38;2.90;99.90
674;DHT22;319;48.764;9.174;2023-03-01T04:43:10;2.80;98.60
674;DHT22;319;48.764;9.174;2023-03-01T04:48:04;2.90;95.80
674;DHT22;319;48.764;9.174;2023-03-01T04:50:32;3.10;98.60
674;DHT22;319;48.764;9.174;2023-03-01T04:52:59;3.00;98.70
674;DHT22;319;48.764;9.174;2023-03-01T04:55:26;3.00;98.50
674;DHT22;319;48.764;9.174;2023-03-01T04:57:53;3.10;98.80
674;DHT22;319;48.764;9.174;2023-03-01T05:00:22;3.00;98.90
674;DHT22;319;48.764;9.174;2023-03-01T05:02:51;3.10;98.70
674;DHT22;319;48.764;9.174;2023-03-01T05:05:25;3.10;99.00
674;DHT22;319;48.764;9.174;2023-03-01T05:07:53;3.10;98.90
674;DHT22;319;48.764;9.174;2023-03-01T05:10:21;4.00;99.00
674;DHT22;319;48.764;9.174;2023-03-01T05:12:49;2.90;98.60
674;DHT22;319;48.764;9.174;2023-03-01T05:15:18;5.00;99.60
674;DHT22;319;48.764;9.174;2023-03-01T05:17:48;3.10;98.70
674;DHT22;319;48.764;9.174;2023-03-01T05:20:15;3.20;99.00
674;DHT22;319;48.764;9.174;2023-03-01T05:22:42;3.20;98.80
674;DHT22;319;48.764;9.174;2023-03-01T05:25:09;3.20;98.90
674;DHT22;319;48.764;9.174;2023-03-01T05:27:36;3.20;98.80
674;DHT22;319;48.764;9.174;2023-03-01T05:30:04;3.20;99.10
674;DHT22;319;48.764;9.174;2023-03-01T05:32:42;3.20;98.00
674;DHT22;319;48.764;9.174;2023-03-01T05:35:11;3.10;98.30
674;DHT22;319;48.764;9.174;2023-03-01T05:37:40;3.10;98.70
674;DHT22;319;48.764;9.174;2023-03-01T05:40:09;3.60;98.90
674;DHT22;319;48.764;9.174;2023-03-01T05:42:44;3.30;98.10
674;DHT22;319;48.764;9.174;2023-03-01T05:45:12;3.30;96.20
674;DHT22;319;48.764;9.174;2023-03-01T05:47:39;3.40;98.40
674;DHT22;319;48.764;9.174;2023-03-01T05:50:15;3.40;98.40
674;DHT22;319;48.764;9.174;2023-03-01T05:52:45;3.60;97.70
674;DHT22;319;48.764;9.174;2023-03-01T05:55:12;3.20;97.80
674;DHT22;319;48.764;9.174;2023-03-01T05:57:38;3.20;98.30
674;DHT22;319;48.764;9.174;2023-03-01T06:00:08;3.50;98.60
674;DHT22;319;48.764;9.174;2023-03-01T19:20:55;6.20;91.30
674;DHT22;319;48.764;9.174;2023-03-01T19:27:31;6.10;91.60
